PWSweather.com
Personal Weather Stations
Station Observations
PICKERING
North Yorkshire, PickeringGB

North YorkshirePickeringGB

Lat: 54.2494, Lon: -0.7725

Elevation: 192

Station Type: Oregon Scientific WMR100

http://www.yorkshirewalker.co.uk/weather/

High Low Average
Temperature 50.2°F10.1°F 37.4°F3.0°F 45.8°F7.7°F
Dew Point 42.8°F6.0°F 23.0°F-5.0°F 33.1°F0.6°F
Winds 8.3 mph W13.4 mph W Calm Calm 2.3 mph 3.7 mph
Wind Gusts 14.5 mph23.3 mph -- 4.5 mph7.2 mph
Humidity 80% 38% 61%
Pressure 30.36 in1028.10 in 30.01 in1016.30 in -
Precipitation 0.72 in18.30 in - -
Hour Temp Dew Point Humidity Winds Wind Gusts Pressure Precip Precip Rate Daily Precip Total
12:00 AM 48.4°F9.1°C 42.8°F6.0°C 77% Calm Calm -- 30.12 in1020.0 mb 0.00 in0.0 mm 0.00 in0.0 mm 0.00 in0.0 mm
12:05 AM 48.4°F9.1°C 42.8°F6.0°C 77% Calm Calm -- 30.12 in1020.0 mb 0.00 in0.0 mm 0.00 in0.0 mm 0.00 in0.0 mm
12:10 AM 48.4°F9.1°C 42.8°F6.0°C 77% Calm Calm -- 30.12 in1020.0 mb 0.00 in0.0 mm 0.00 in0.0 mm 0.00 in0.0 mm
12:15 AM 48.4°F9.1°C 42.8°F6.0°C 77% Calm Calm -- 30.12 in1020.0 mb 0.00 in0.0 mm 0.00 in0.0 mm 0.00 in0.0 mm
12:20 AM 48.4°F9.1°C 42.8°F6.0°C 77% Calm Calm -- 30.12 in1020.0 mb 0.00 in0.0 mm 0.00 in0.0 mm 0.00 in0.0 mm
12:25 AM 48.4°F9.1°C 42.8°F6.0°C 77% Calm Calm -- 30.12 in1020.0 mb 0.00 in0.0 mm 0.00 in0.0 mm 0.00 in0.0 mm
12:30 AM 48.4°F9.1°C 42.8°F6.0°C 77% Calm Calm -- 30.12 in1020.0 mb 0.00 in0.0 mm 0.00 in0.0 mm 0.00 in0.0 mm
12:35 AM 48.4°F9.1°C 42.8°F6.0°C 78% Calm Calm -- 30.12 in1020.0 mb 0.00 in0.0 mm 0.00 in0.0 mm 0.00 in0.0 mm
12:40 AM 48.4°F9.1°C 42.8°F6.0°C 78% 0.1 mph SSE0.2 kmh SSE 0.9 mph1.4 kmh 30.09 in1019.0 mb 0.00 in0.0 mm 0.00 in0.0 mm 0.00 in0.0 mm
12:45 AM 48.4°F9.1°C 42.8°F6.0°C 78% 0.1 mph SSE0.2 kmh SSE 0.9 mph1.4 kmh 30.09 in1019.0 mb 0.00 in0.0 mm 0.00 in0.0 mm 0.00 in0.0 mm
12:50 AM 48.4°F9.1°C 42.8°F6.0°C 78% 0.1 mph SSE0.2 kmh SSE 0.9 mph1.4 kmh 30.09 in1019.0 mb 0.00 in0.0 mm 0.00 in0.0 mm 0.00 in0.0 mm
12:55 AM 48.4°F9.1°C 42.8°F6.0°C 78% Calm Calm -- 30.09 in1019.0 mb 0.00 in0.0 mm 0.00 in0.0 mm 0.00 in0.0 mm
01:00 AM 48.4°F9.1°C 42.8°F6.0°C 78% 0.3 mph SSE0.5 kmh SSE 1.1 mph1.8 kmh 30.09 in1019.0 mb 0.00 in0.0 mm 0.00 in0.0 mm 0.00 in0.0 mm
01:05 AM 48.6°F9.2°C 42.8°F6.0°C 78% 0.4 mph S0.6 kmh S 1.1 mph1.8 kmh 30.09 in1019.0 mb 0.00 in0.0 mm 0.00 in0.0 mm 0.00 in0.0 mm
01:10 AM 48.6°F9.2°C 42.8°F6.0°C 78% 0.2 mph SSW0.3 kmh SSW 1.1 mph1.8 kmh 30.09 in1019.0 mb 0.00 in0.0 mm 0.00 in0.0 mm 0.00 in0.0 mm
01:15 AM 48.6°F9.2°C 42.8°F6.0°C 78% Calm Calm -- 30.09 in1019.0 mb 0.00 in0.0 mm 0.00 in0.0 mm 0.00 in0.0 mm
01:20 AM 48.6°F9.2°C 42.8°F6.0°C 79% Calm Calm 0.9 mph1.4 kmh 30.09 in1019.0 mb 0.00 in0.0 mm 0.00 in0.0 mm 0.00 in0.0 mm
01:25 AM 48.6°F9.2°C 42.8°F6.0°C 79% 0.1 mph S0.2 kmh S 0.9 mph1.4 kmh 30.09 in1019.0 mb 0.00 in0.0 mm 0.00 in0.0 mm 0.00 in0.0 mm
01:30 AM 48.6°F9.2°C 42.8°F6.0°C 79% 0.2 mph S0.3 kmh S 0.9 mph1.4 kmh 30.09 in1019.0 mb 0.00 in0.0 mm 0.00 in0.0 mm 0.00 in0.0 mm
01:35 AM 48.4°F9.1°C 42.8°F6.0°C 79% 0.1 mph SSW0.2 kmh SSW 0.9 mph1.4 kmh 30.09 in1019.0 mb 0.00 in0.0 mm 0.00 in0.0 mm 0.00 in0.0 mm
01:40 AM 48.4°F9.1°C 42.8°F6.0°C 79% 0.1 mph SSW0.2 kmh SSW 1.1 mph1.8 kmh 30.09 in1019.0 mb 0.00 in0.0 mm 0.00 in0.0 mm 0.00 in0.0 mm
01:45 AM 48.6°F9.2°C 42.8°F6.0°C 79% 0.1 mph SSW0.2 kmh SSW 1.1 mph1.8 kmh 30.09 in1019.0 mb 0.00 in0.0 mm 0.00 in0.0 mm 0.00 in0.0 mm
01:50 AM 48.4°F9.1°C 42.8°F6.0°C 79% 0.2 mph S0.3 kmh S 0.9 mph1.4 kmh 30.09 in1019.0 mb 0.00 in0.0 mm 0.00 in0.0 mm 0.00 in0.0 mm
01:55 AM 48.4°F9.1°C 42.8°F6.0°C 79% 0.5 mph S0.8 kmh S 0.9 mph1.4 kmh 30.07 in1018.3 mb 0.00 in0.0 mm 0.00 in0.0 mm 0.00 in0.0 mm
02:00 AM 48.4°F9.1°C 42.8°F6.0°C 79% 0.3 mph SSW0.5 kmh SSW 0.9 mph1.4 kmh 30.07 in1018.3 mb 0.00 in0.0 mm 0.00 in0.0 mm 0.00 in0.0 mm
02:05 AM 48.4°F9.1°C 42.8°F6.0°C 79% 0.3 mph SSW0.5 kmh SSW 0.9 mph1.4 kmh 30.07 in1018.3 mb 0.00 in0.0 mm 0.00 in0.0 mm 0.00 in0.0 mm
02:10 AM 48.4°F9.1°C 42.8°F6.0°C 79% 0.3 mph SW0.5 kmh SW 0.9 mph1.4 kmh 30.09 in1019.0 mb 0.00 in0.0 mm 0.00 in0.0 mm 0.00 in0.0 mm
02:15 AM 48.4°F9.1°C 42.8°F6.0°C 79% 0.2 mph SW0.3 kmh SW 0.9 mph1.4 kmh 30.09 in1019.0 mb 0.00 in0.0 mm 0.00 in0.0 mm 0.00 in0.0 mm
02:20 AM 48.4°F9.1°C 42.8°F6.0°C 79% 0.2 mph WSW0.3 kmh WSW 0.9 mph1.4 kmh 30.09 in1019.0 mb 0.00 in0.0 mm 0.00 in0.0 mm 0.00 in0.0 mm
02:25 AM 48.2°F9.0°C 42.8°F6.0°C 79% 0.2 mph WSW0.3 kmh WSW 0.9 mph1.4 kmh 30.09 in1019.0 mb 0.00 in0.0 mm 0.00 in0.0 mm 0.00 in0.0 mm
02:30 AM 48.2°F9.0°C 42.8°F6.0°C 79% 0.2 mph WSW0.3 kmh WSW 0.9 mph1.4 kmh 30.09 in1019.0 mb 0.00 in0.0 mm 0.00 in0.0 mm 0.00 in0.0 mm
02:35 AM 48.2°F9.0°C 42.8°F6.0°C 79% Calm Calm -- 30.09 in1019.0 mb 0.00 in0.0 mm 0.00 in0.0 mm 0.00 in0.0 mm
02:40 AM 48.2°F9.0°C 42.8°F6.0°C 79% Calm Calm -- 30.07 in1018.3 mb 0.00 in0.0 mm 0.00 in0.0 mm 0.00 in0.0 mm
02:45 AM 48.2°F9.0°C 42.8°F6.0°C 79% Calm Calm -- 30.07 in1018.3 mb 0.00 in0.0 mm 0.00 in0.0 mm 0.00 in0.0 mm
02:50 AM 48.2°F9.0°C 42.8°F6.0°C 79% Calm Calm -- 30.07 in1018.3 mb 0.00 in0.0 mm 0.00 in0.0 mm 0.00 in0.0 mm
02:55 AM 48.2°F9.0°C 42.8°F6.0°C 79% Calm Calm -- 30.07 in1018.3 mb 0.00 in0.0 mm 0.00 in0.0 mm 0.00 in0.0 mm
03:00 AM 48.2°F9.0°C 42.8°F6.0°C 79% Calm Calm -- 30.07 in1018.3 mb 0.00 in0.0 mm 0.00 in0.0 mm 0.00 in0.0 mm
03:05 AM 48.2°F9.0°C 42.8°F6.0°C 79% Calm Calm -- 30.07 in1018.3 mb 0.00 in0.0 mm 0.00 in0.0 mm 0.00 in0.0 mm
03:10 AM 48.4°F9.1°C 42.8°F6.0°C 79% Calm Calm -- 30.07 in1018.3 mb 0.00 in0.0 mm 0.00 in0.0 mm 0.00 in0.0 mm
03:15 AM 48.4°F9.1°C 42.8°F6.0°C 79% Calm Calm -- 30.07 in1018.3 mb 0.00 in0.0 mm 0.00 in0.0 mm 0.00 in0.0 mm
03:20 AM 48.4°F9.1°C 42.8°F6.0°C 79% Calm Calm -- 30.07 in1018.3 mb 0.00 in0.0 mm 0.00 in0.0 mm 0.00 in0.0 mm
03:25 AM 48.4°F9.1°C 42.8°F6.0°C 79% 0.1 mph SW0.2 kmh SW 0.9 mph1.4 kmh 30.07 in1018.3 mb 0.00 in0.0 mm 0.00 in0.0 mm 0.00 in0.0 mm
03:30 AM 48.4°F9.1°C 42.8°F6.0°C 79% 0.3 mph SW0.5 kmh SW 1.3 mph2.1 kmh 30.07 in1018.3 mb 0.00 in0.0 mm 0.00 in0.0 mm 0.00 in0.0 mm
03:35 AM 48.4°F9.1°C 42.8°F6.0°C 79% 0.2 mph SSW0.3 kmh SSW 1.3 mph2.1 kmh 30.07 in1018.3 mb 0.00 in0.0 mm 0.00 in0.0 mm 0.00 in0.0 mm
03:40 AM 48.4°F9.1°C 42.8°F6.0°C 79% Calm Calm -- 30.04 in1017.3 mb 0.00 in0.0 mm 0.00 in0.0 mm 0.00 in0.0 mm
03:45 AM 48.2°F9.0°C 42.8°F6.0°C 79% Calm Calm -- 30.04 in1017.3 mb 0.00 in0.0 mm 0.00 in0.0 mm 0.00 in0.0 mm
03:50 AM 48.2°F9.0°C 42.8°F6.0°C 79% Calm Calm -- 30.04 in1017.3 mb 0.00 in0.0 mm 0.00 in0.0 mm 0.00 in0.0 mm
03:55 AM 48.0°F8.9°C 42.8°F6.0°C 80% 0.2 mph SSW0.3 kmh SSW 1.1 mph1.8 kmh 30.04 in1017.3 mb 0.00 in0.0 mm 0.00 in0.0 mm 0.00 in0.0 mm
04:00 AM 48.2°F9.0°C 42.8°F6.0°C 79% 0.2 mph SSW0.3 kmh SSW 1.1 mph1.8 kmh 30.04 in1017.3 mb 0.00 in0.0 mm 0.00 in0.0 mm 0.00 in0.0 mm
04:05 AM 48.0°F8.9°C 42.8°F6.0°C 80% 0.3 mph SSW0.5 kmh SSW 4.5 mph7.2 kmh 30.04 in1017.3 mb 0.00 in0.0 mm 0.00 in0.0 mm 0.00 in0.0 mm
04:10 AM 47.7°F8.7°C 42.8°F6.0°C 80% 0.3 mph SSW0.5 kmh SSW 4.5 mph7.2 kmh 30.04 in1017.3 mb 0.00 in0.0 mm 0.00 in0.0 mm 0.00 in0.0 mm
04:15 AM 47.7°F8.7°C 42.8°F6.0°C 80% 0.1 mph SSW0.2 kmh SSW 0.9 mph1.4 kmh 30.04 in1017.3 mb 0.00 in0.0 mm 0.00 in0.0 mm 0.00 in0.0 mm
04:20 AM 47.8°F8.8°C 42.8°F6.0°C 80% 0.2 mph S0.3 kmh S 1.1 mph1.8 kmh 30.04 in1017.3 mb 0.00 in0.0 mm 0.00 in0.0 mm 0.00 in0.0 mm
04:25 AM 47.8°F8.8°C 42.8°F6.0°C 80% 0.6 mph S1.0 kmh S 2.5 mph4.0 kmh 30.04 in1017.3 mb 0.00 in0.0 mm 0.00 in0.0 mm 0.00 in0.0 mm
04:30 AM 48.0°F8.9°C 42.8°F6.0°C 80% 0.9 mph S1.4 kmh S 2.9 mph4.7 kmh 30.04 in1017.3 mb 0.00 in0.0 mm 0.00 in0.0 mm 0.00 in0.0 mm
04:35 AM 48.0°F8.9°C 42.8°F6.0°C 80% 0.6 mph SSW1.0 kmh SSW 2.9 mph4.7 kmh 30.04 in1017.3 mb 0.00 in0.0 mm 0.00 in0.0 mm 0.00 in0.0 mm
04:40 AM 48.2°F9.0°C 42.8°F6.0°C 80% 0.4 mph S0.6 kmh S 1.1 mph1.8 kmh 30.04 in1017.3 mb 0.00 in0.0 mm 0.00 in0.0 mm 0.00 in0.0 mm
04:45 AM 48.2°F9.0°C 42.8°F6.0°C 79% 1.2 mph S1.9 kmh S 4.0 mph6.4 kmh 30.04 in1017.3 mb 0.00 in0.0 mm 0.00 in0.0 mm 0.00 in0.0 mm
04:50 AM 48.2°F9.0°C 42.8°F6.0°C 79% 1.2 mph S1.9 kmh S 4.0 mph6.4 kmh 30.04 in1017.3 mb 0.00 in0.0 mm 0.00 in0.0 mm 0.00 in0.0 mm
04:55 AM 48.0°F8.9°C 42.8°F6.0°C 80% 0.6 mph SE1.0 kmh SE 1.1 mph1.8 kmh 30.04 in1017.3 mb 0.00 in0.0 mm 0.00 in0.0 mm 0.00 in0.0 mm
05:00 AM 48.0°F8.9°C 42.8°F6.0°C 80% 0.6 mph SSE1.0 kmh SSE 2.9 mph4.7 kmh 30.04 in1017.3 mb 0.00 in0.0 mm 0.00 in0.0 mm 0.00 in0.0 mm
05:05 AM 48.0°F8.9°C 42.8°F6.0°C 79% 0.4 mph SSE0.6 kmh SSE 2.9 mph4.7 kmh 30.04 in1017.3 mb 0.00 in0.0 mm 0.00 in0.0 mm 0.00 in0.0 mm
05:10 AM 48.2°F9.0°C 42.8°F6.0°C 79% 0.4 mph WSW0.6 kmh WSW 2.7 mph4.3 kmh 30.04 in1017.3 mb 0.00 in0.0 mm 0.00 in0.0 mm 0.00 in0.0 mm
05:15 AM 48.2°F9.0°C 42.8°F6.0°C 79% 1.8 mph WSW2.9 kmh WSW 6.3 mph10.1 kmh 30.04 in1017.3 mb 0.00 in0.0 mm 0.00 in0.0 mm 0.00 in0.0 mm
05:20 AM 48.4°F9.1°C 42.8°F6.0°C 79% 4.2 mph SW6.8 kmh SW 7.8 mph12.6 kmh 30.04 in1017.3 mb 0.00 in0.0 mm 0.00 in0.0 mm 0.00 in0.0 mm
05:25 AM 48.2°F9.0°C 42.8°F6.0°C 79% 5.0 mph SSW8.0 kmh SSW 7.8 mph12.6 kmh 30.04 in1017.3 mb 0.00 in0.0 mm 0.00 in0.0 mm 0.00 in0.0 mm
05:30 AM 48.0°F8.9°C 42.8°F6.0°C 80% 4.3 mph SSW6.9 kmh SSW 6.5 mph10.5 kmh 30.04 in1017.3 mb 0.00 in0.0 mm 0.00 in0.0 mm 0.00 in0.0 mm
05:35 AM 48.0°F8.9°C 42.8°F6.0°C 80% 5.0 mph SSW8.0 kmh SSW 7.4 mph11.9 kmh 30.04 in1017.3 mb 0.00 in0.0 mm 0.00 in0.0 mm 0.00 in0.0 mm
05:40 AM 48.0°F8.9°C 42.8°F6.0°C 80% 5.3 mph SSW8.5 kmh SSW 8.7 mph14.0 kmh 30.04 in1017.3 mb 0.00 in0.0 mm 0.00 in0.0 mm 0.00 in0.0 mm
05:45 AM 47.8°F8.8°C 42.8°F6.0°C 80% 4.2 mph SSW6.8 kmh SSW 8.7 mph14.0 kmh 30.04 in1017.3 mb 0.00 in0.0 mm 0.00 in0.0 mm 0.00 in0.0 mm
05:50 AM 47.8°F8.8°C 42.8°F6.0°C 80% 4.1 mph SW6.6 kmh SW 8.7 mph14.0 kmh 30.04 in1017.3 mb 0.00 in0.0 mm 0.00 in0.0 mm 0.00 in0.0 mm
05:55 AM 48.0°F8.9°C 42.8°F6.0°C 80% 4.9 mph SW7.9 kmh SW 7.4 mph11.9 kmh 30.04 in1017.3 mb 0.00 in0.0 mm 0.00 in0.0 mm 0.00 in0.0 mm
06:00 AM 48.0°F8.9°C 42.8°F6.0°C 80% 5.0 mph SSW8.0 kmh SSW 9.8 mph15.8 kmh 30.04 in1017.3 mb 0.00 in0.0 mm 0.00 in0.0 mm 0.00 in0.0 mm
06:05 AM 47.7°F8.7°C 42.8°F6.0°C 80% 4.8 mph SSW7.7 kmh SSW 9.8 mph15.8 kmh 30.04 in1017.3 mb 0.00 in0.0 mm 0.00 in0.0 mm 0.00 in0.0 mm
06:10 AM 47.7°F8.7°C 42.8°F6.0°C 80% 4.1 mph SSW6.6 kmh SSW 8.1 mph13.0 kmh 30.04 in1017.3 mb 0.00 in0.0 mm 0.00 in0.0 mm 0.00 in0.0 mm
06:15 AM 47.5°F8.6°C 42.8°F6.0°C 80% 4.3 mph SSW6.9 kmh SSW 8.1 mph13.0 kmh 30.04 in1017.3 mb 0.00 in0.0 mm 0.00 in0.0 mm 0.00 in0.0 mm
06:20 AM 47.3°F8.5°C 42.8°F6.0°C 80% 4.6 mph SSW7.4 kmh SSW 6.0 mph9.7 kmh 30.04 in1017.3 mb 0.00 in0.0 mm 0.00 in0.0 mm 0.00 in0.0 mm
06:25 AM 47.3°F8.5°C 42.8°F6.0°C 80% 3.9 mph SSW6.3 kmh SSW 6.0 mph9.7 kmh 30.04 in1017.3 mb 0.00 in0.0 mm 0.00 in0.0 mm 0.00 in0.0 mm
06:30 AM 47.3°F8.5°C 42.8°F6.0°C 80% 3.9 mph SSW6.3 kmh SSW 7.2 mph11.6 kmh 30.04 in1017.3 mb 0.00 in0.0 mm 0.00 in0.0 mm 0.00 in0.0 mm
06:35 AM 47.1°F8.4°C 42.8°F6.0°C 80% 3.8 mph SW6.1 kmh SW 7.2 mph11.6 kmh 30.04 in1017.3 mb 0.00 in0.0 mm 0.00 in0.0 mm 0.00 in0.0 mm
06:40 AM 47.1°F8.4°C 42.8°F6.0°C 80% 3.3 mph SSW5.3 kmh SSW 4.3 mph6.9 kmh 30.04 in1017.3 mb 0.00 in0.0 mm 0.00 in0.0 mm 0.00 in0.0 mm
06:45 AM 47.3°F8.5°C 42.8°F6.0°C 80% 3.2 mph S5.1 kmh S 4.3 mph6.9 kmh 30.04 in1017.3 mb 0.00 in0.0 mm 0.00 in0.0 mm 0.00 in0.0 mm
06:50 AM 47.3°F8.5°C 42.8°F6.0°C 80% 2.7 mph S4.3 kmh S 4.3 mph6.9 kmh 30.04 in1017.3 mb 0.00 in0.0 mm 0.00 in0.0 mm 0.00 in0.0 mm
06:55 AM 47.3°F8.5°C 42.8°F6.0°C 80% 2.3 mph S3.7 kmh S 4.0 mph6.4 kmh 30.01 in1016.3 mb 0.00 in0.0 mm 0.00 in0.0 mm 0.00 in0.0 mm
07:00 AM 47.5°F8.6°C 42.8°F6.0°C 80% 2.4 mph S3.9 kmh S 4.7 mph7.6 kmh 30.01 in1016.3 mb 0.00 in0.0 mm 0.00 in0.0 mm 0.00 in0.0 mm
07:05 AM 47.7°F8.7°C 42.8°F6.0°C 80% 2.1 mph S3.4 kmh S 4.7 mph7.6 kmh 30.01 in1016.3 mb 0.00 in0.0 mm 0.00 in0.0 mm 0.00 in0.0 mm
07:10 AM 47.7°F8.7°C 42.8°F6.0°C 80% 2.3 mph S3.7 kmh S 4.7 mph7.6 kmh 30.01 in1016.3 mb 0.00 in0.0 mm 0.00 in0.0 mm 0.00 in0.0 mm
07:15 AM 47.7°F8.7°C 42.8°F6.0°C 80% 3.3 mph S5.3 kmh S 4.7 mph7.6 kmh 30.01 in1016.3 mb 0.00 in0.0 mm 0.00 in0.0 mm 0.00 in0.0 mm
07:20 AM 47.7°F8.7°C 42.8°F6.0°C 79% 3.5 mph S5.6 kmh S 4.9 mph7.9 kmh 30.01 in1016.3 mb 0.00 in0.0 mm 0.00 in0.0 mm 0.00 in0.0 mm
07:25 AM 47.7°F8.7°C 42.8°F6.0°C 79% 3.8 mph S6.1 kmh S 7.6 mph12.2 kmh 30.01 in1016.3 mb 0.00 in0.0 mm 0.00 in0.0 mm 0.00 in0.0 mm
07:30 AM 47.7°F8.7°C 41.0°F5.0°C 78% 3.6 mph SE5.8 kmh SE 7.6 mph12.2 kmh 30.01 in1016.3 mb 0.00 in0.0 mm 0.00 in0.0 mm 0.00 in0.0 mm
07:35 AM 47.7°F8.7°C 41.0°F5.0°C 78% 3.6 mph SE5.8 kmh SE 5.8 mph9.3 kmh 30.01 in1016.3 mb 0.00 in0.0 mm 0.00 in0.0 mm 0.00 in0.0 mm
07:40 AM 47.8°F8.8°C 42.8°F6.0°C 78% 3.6 mph S5.8 kmh S 6.3 mph10.1 kmh 30.01 in1016.3 mb 0.00 in0.0 mm 0.00 in0.0 mm 0.00 in0.0 mm
07:45 AM 47.8°F8.8°C 42.8°F6.0°C 77% 4.5 mph SSE7.2 kmh SSE 10.7 mph17.2 kmh 30.01 in1016.3 mb 0.00 in0.0 mm 0.00 in0.0 mm 0.00 in0.0 mm
07:50 AM 47.8°F8.8°C 42.8°F6.0°C 77% 5.2 mph SSE8.4 kmh SSE 10.7 mph17.2 kmh 30.01 in1016.3 mb 0.00 in0.0 mm 0.00 in0.0 mm 0.00 in0.0 mm
07:55 AM 47.8°F8.8°C 42.8°F6.0°C 77% 4.7 mph S7.6 kmh S 7.4 mph11.9 kmh 30.04 in1017.3 mb 0.00 in0.0 mm 0.00 in0.0 mm 0.00 in0.0 mm
08:00 AM 47.8°F8.8°C 41.0°F5.0°C 76% 4.2 mph S6.8 kmh S 7.4 mph11.9 kmh 30.04 in1017.3 mb 0.00 in0.0 mm 0.00 in0.0 mm 0.00 in0.0 mm
08:05 AM 47.5°F8.6°C 41.0°F5.0°C 76% 3.8 mph S6.1 kmh S 5.8 mph9.3 kmh 30.04 in1017.3 mb 0.00 in0.0 mm 0.00 in0.0 mm 0.00 in0.0 mm
08:10 AM 47.3°F8.5°C 41.0°F5.0°C 76% 3.5 mph SSE5.6 kmh SSE 5.6 mph9.0 kmh 30.04 in1017.3 mb 0.00 in0.0 mm 0.00 in0.0 mm 0.00 in0.0 mm
08:15 AM 47.3°F8.5°C 41.0°F5.0°C 76% 2.6 mph S4.2 kmh S 4.3 mph6.9 kmh 30.04 in1017.3 mb 0.00 in0.0 mm 0.00 in0.0 mm 0.00 in0.0 mm
08:20 AM 47.5°F8.6°C 41.0°F5.0°C 76% 1.9 mph S3.1 kmh S 4.5 mph7.2 kmh 30.04 in1017.3 mb 0.00 in0.0 mm 0.00 in0.0 mm 0.00 in0.0 mm
08:25 AM 47.5°F8.6°C 41.0°F5.0°C 76% 1.8 mph S2.9 kmh S 4.5 mph7.2 kmh 30.04 in1017.3 mb 0.00 in0.0 mm 0.00 in0.0 mm 0.00 in0.0 mm
08:30 AM 47.3°F8.5°C 41.0°F5.0°C 76% 2.5 mph S4.0 kmh S 4.3 mph6.9 kmh 30.04 in1017.3 mb 0.00 in0.0 mm 0.00 in0.0 mm 0.00 in0.0 mm
08:35 AM 47.3°F8.5°C 41.0°F5.0°C 76% 3.1 mph SSW5.0 kmh SSW 4.9 mph7.9 kmh 30.04 in1017.3 mb 0.00 in0.0 mm 0.00 in0.0 mm 0.00 in0.0 mm
08:40 AM 47.5°F8.6°C 41.0°F5.0°C 75% 2.9 mph SSW4.7 kmh SSW 4.9 mph7.9 kmh 30.04 in1017.3 mb 0.00 in0.0 mm 0.00 in0.0 mm 0.00 in0.0 mm
08:45 AM 47.7°F8.7°C 41.0°F5.0°C 75% 3.0 mph SSW4.8 kmh SSW 4.9 mph7.9 kmh 30.04 in1017.3 mb 0.00 in0.0 mm 0.00 in0.0 mm 0.00 in0.0 mm
08:50 AM 47.8°F8.8°C 41.0°F5.0°C 75% 3.6 mph SSW5.8 kmh SSW 5.6 mph9.0 kmh 30.04 in1017.3 mb 0.00 in0.0 mm 0.00 in0.0 mm 0.00 in0.0 mm
08:55 AM 48.0°F8.9°C 41.0°F5.0°C 75% 3.4 mph S5.5 kmh S 5.6 mph9.0 kmh 30.04 in1017.3 mb 0.00 in0.0 mm 0.00 in0.0 mm 0.00 in0.0 mm
09:00 AM 48.0°F8.9°C 41.0°F5.0°C 75% 3.6 mph S5.8 kmh S 5.4 mph8.7 kmh 30.04 in1017.3 mb 0.00 in0.0 mm 0.00 in0.0 mm 0.00 in0.0 mm
09:05 AM 48.2°F9.0°C 41.0°F5.0°C 74% 3.0 mph S4.8 kmh S 5.4 mph8.7 kmh 30.04 in1017.3 mb 0.00 in0.0 mm 0.00 in0.0 mm 0.00 in0.0 mm
09:10 AM 48.2°F9.0°C 41.0°F5.0°C 74% 1.3 mph SSE2.1 kmh SSE 3.4 mph5.5 kmh 30.04 in1017.3 mb 0.00 in0.0 mm 0.00 in0.0 mm 0.00 in0.0 mm
09:15 AM 48.2°F9.0°C 41.0°F5.0°C 74% 1.8 mph SSE2.9 kmh SSE 3.6 mph5.8 kmh 30.04 in1017.3 mb 0.00 in0.0 mm 0.00 in0.0 mm 0.00 in0.0 mm
09:20 AM 48.4°F9.1°C 41.0°F5.0°C 74% 1.6 mph SSE2.6 kmh SSE 3.6 mph5.8 kmh 30.04 in1017.3 mb 0.00 in0.0 mm 0.00 in0.0 mm 0.00 in0.0 mm
09:25 AM 48.4°F9.1°C 41.0°F5.0°C 74% 0.9 mph SSE1.4 kmh SSE 3.4 mph5.5 kmh 30.04 in1017.3 mb 0.00 in0.0 mm 0.00 in0.0 mm 0.00 in0.0 mm
09:30 AM 48.6°F9.2°C 41.0°F5.0°C 74% 2.1 mph S3.4 kmh S 8.7 mph14.0 kmh 30.04 in1017.3 mb 0.00 in0.0 mm 0.00 in0.0 mm 0.00 in0.0 mm
09:35 AM 48.7°F9.3°C 41.0°F5.0°C 73% 2.9 mph SSW4.7 kmh SSW 8.7 mph14.0 kmh 30.04 in1017.3 mb 0.00 in0.0 mm 0.00 in0.0 mm 0.00 in0.0 mm
09:40 AM 48.7°F9.3°C 41.0°F5.0°C 73% 3.4 mph SSW5.5 kmh SSW 5.6 mph9.0 kmh 30.04 in1017.3 mb 0.00 in0.0 mm 0.00 in0.0 mm 0.00 in0.0 mm
09:45 AM 48.7°F9.3°C 41.0°F5.0°C 73% 3.3 mph SSW5.3 kmh SSW 5.6 mph9.0 kmh 30.04 in1017.3 mb 0.00 in0.0 mm 0.00 in0.0 mm 0.00 in0.0 mm
09:50 AM 48.9°F9.4°C 41.0°F5.0°C 73% 2.9 mph SSW4.7 kmh SSW 5.6 mph9.0 kmh 30.04 in1017.3 mb 0.00 in0.0 mm 0.00 in0.0 mm 0.00 in0.0 mm
09:55 AM 49.1°F9.5°C 41.0°F5.0°C 73% 3.2 mph SSW5.1 kmh SSW 7.4 mph11.9 kmh 30.04 in1017.3 mb 0.00 in0.0 mm 0.00 in0.0 mm 0.00 in0.0 mm
10:00 AM 49.3°F9.6°C 41.0°F5.0°C 72% 3.4 mph SSW5.5 kmh SSW 7.4 mph11.9 kmh 30.04 in1017.3 mb 0.00 in0.0 mm 0.00 in0.0 mm 0.00 in0.0 mm
10:05 AM 49.3°F9.6°C 41.0°F5.0°C 72% 3.4 mph SW5.5 kmh SW 6.5 mph10.5 kmh 30.04 in1017.3 mb 0.00 in0.0 mm 0.00 in0.0 mm 0.00 in0.0 mm
10:10 AM 49.3°F9.6°C 41.0°F5.0°C 71% 3.8 mph WSW6.1 kmh WSW 6.5 mph10.5 kmh 30.04 in1017.3 mb 0.00 in0.0 mm 0.00 in0.0 mm 0.00 in0.0 mm
10:15 AM 49.3°F9.6°C 41.0°F5.0°C 71% 4.1 mph WSW6.6 kmh WSW 7.8 mph12.6 kmh 30.04 in1017.3 mb 0.00 in0.0 mm 0.00 in0.0 mm 0.00 in0.0 mm
10:20 AM 49.3°F9.6°C 41.0°F5.0°C 71% 4.1 mph WSW6.6 kmh WSW 7.8 mph12.6 kmh 30.04 in1017.3 mb 0.00 in0.0 mm 0.00 in0.0 mm 0.00 in0.0 mm
10:25 AM 49.3°F9.6°C 41.0°F5.0°C 71% 4.0 mph WSW6.4 kmh WSW 9.8 mph15.8 kmh 30.04 in1017.3 mb 0.00 in0.0 mm 0.00 in0.0 mm 0.00 in0.0 mm
10:30 AM 49.3°F9.6°C 41.0°F5.0°C 71% 6.5 mph WSW10.5 kmh WSW 10.7 mph17.2 kmh 30.04 in1017.3 mb 0.00 in0.0 mm 0.00 in0.0 mm 0.00 in0.0 mm
10:35 AM 49.1°F9.5°C 41.0°F5.0°C 72% 8.3 mph W13.4 kmh W 12.3 mph19.8 kmh 30.04 in1017.3 mb 0.00 in0.0 mm 0.00 in0.0 mm 0.00 in0.0 mm
10:40 AM 49.3°F9.6°C 41.0°F5.0°C 72% 6.7 mph W10.8 kmh W 12.3 mph19.8 kmh 30.07 in1018.3 mb 0.00 in0.0 mm 0.00 in0.0 mm 0.00 in0.0 mm
10:45 AM 49.5°F9.7°C 41.0°F5.0°C 72% 5.4 mph WNW8.7 kmh WNW 7.6 mph12.2 kmh 30.07 in1018.3 mb 0.00 in0.0 mm 0.00 in0.0 mm 0.00 in0.0 mm
10:50 AM 49.5°F9.7°C 39.2°F4.0°C 69% 5.7 mph WNW9.2 kmh WNW 7.6 mph12.2 kmh 30.07 in1018.3 mb 0.00 in0.0 mm 0.00 in0.0 mm 0.00 in0.0 mm
10:55 AM 49.5°F9.7°C 39.2°F4.0°C 66% 6.5 mph W10.5 kmh W 11.0 mph17.7 kmh 30.07 in1018.3 mb 0.00 in0.0 mm 0.00 in0.0 mm 0.00 in0.0 mm
11:00 AM 49.6°F9.8°C 37.4°F3.0°C 64% 6.3 mph W10.1 kmh W 11.0 mph17.7 kmh 30.07 in1018.3 mb 0.00 in0.0 mm 0.00 in0.0 mm 0.00 in0.0 mm
11:05 AM 49.8°F9.9°C 39.2°F4.0°C 65% 3.9 mph WSW6.3 kmh WSW 6.3 mph10.1 kmh 30.07 in1018.3 mb 0.00 in0.0 mm 0.00 in0.0 mm 0.00 in0.0 mm
11:10 AM 49.8°F9.9°C 39.2°F4.0°C 64% 3.8 mph W6.1 kmh W 8.7 mph14.0 kmh 30.09 in1019.0 mb 0.00 in0.0 mm 0.00 in0.0 mm 0.00 in0.0 mm
11:15 AM 50.0°F10.0°C 37.4°F3.0°C 62% 4.5 mph WSW7.2 kmh WSW 8.7 mph14.0 kmh 30.09 in1019.0 mb 0.00 in0.0 mm 0.00 in0.0 mm 0.00 in0.0 mm
11:20 AM 50.0°F10.0°C 37.4°F3.0°C 59% 4.8 mph WSW7.7 kmh WSW 6.3 mph10.1 kmh 30.09 in1019.0 mb 0.00 in0.0 mm 0.00 in0.0 mm 0.00 in0.0 mm
11:25 AM 50.2°F10.1°C 35.6°F2.0°C 58% 4.9 mph W7.9 kmh W 8.7 mph14.0 kmh 30.09 in1019.0 mb 0.00 in0.0 mm 0.00 in0.0 mm 0.00 in0.0 mm
11:30 AM 50.0°F10.0°C 35.6°F2.0°C 58% 5.1 mph W8.2 kmh W 8.7 mph14.0 kmh 30.09 in1019.0 mb 0.00 in0.0 mm 0.00 in0.0 mm 0.00 in0.0 mm
11:35 AM 50.2°F10.1°C 35.6°F2.0°C 56% 5.4 mph W8.7 kmh W 13.2 mph21.2 kmh 30.09 in1019.0 mb 0.00 in0.0 mm 0.00 in0.0 mm 0.00 in0.0 mm
11:40 AM 50.2°F10.1°C 33.8°F1.0°C 52% 6.7 mph W10.8 kmh W 13.2 mph21.2 kmh 30.09 in1019.0 mb 0.00 in0.0 mm 0.00 in0.0 mm 0.00 in0.0 mm
11:45 AM 50.0°F10.0°C 32.0°F0.0°C 49% 7.2 mph W11.6 kmh W 13.2 mph21.2 kmh 30.09 in1019.0 mb 0.00 in0.0 mm 0.00 in0.0 mm 0.00 in0.0 mm
11:50 AM 50.0°F10.0°C 32.0°F0.0°C 48% 6.1 mph W9.8 kmh W 13.0 mph20.9 kmh 30.09 in1019.0 mb 0.00 in0.0 mm 0.00 in0.0 mm 0.00 in0.0 mm
11:55 AM 50.0°F10.0°C 30.2°F-1.0°C 47% 5.5 mph WSW8.9 kmh WSW 13.0 mph20.9 kmh 30.12 in1020.0 mb 0.00 in0.0 mm 0.00 in0.0 mm 0.00 in0.0 mm
12:00 PM 50.2°F10.1°C 32.0°F0.0°C 49% 4.2 mph W6.8 kmh W 7.8 mph12.6 kmh 30.12 in1020.0 mb 0.00 in0.0 mm 0.00 in0.0 mm 0.00 in0.0 mm
12:05 PM 50.2°F10.1°C 32.0°F0.0°C 48% 4.5 mph W7.2 kmh W 7.8 mph12.6 kmh 30.12 in1020.0 mb 0.00 in0.0 mm 0.00 in0.0 mm 0.00 in0.0 mm
12:10 PM 50.2°F10.1°C 32.0°F0.0°C 48% 4.6 mph WNW7.4 kmh WNW 7.6 mph12.2 kmh 30.12 in1020.0 mb 0.00 in0.0 mm 0.00 in0.0 mm 0.00 in0.0 mm
12:15 PM 50.2°F10.1°C 28.4°F-2.0°C 43% 5.3 mph W8.5 kmh W 8.5 mph13.7 kmh 30.12 in1020.0 mb 0.00 in0.0 mm 0.00 in0.0 mm 0.00 in0.0 mm
12:20 PM 50.0°F10.0°C 30.2°F-1.0°C 45% 5.1 mph W8.2 kmh W 8.5 mph13.7 kmh 30.12 in1020.0 mb 0.00 in0.0 mm 0.00 in0.0 mm 0.00 in0.0 mm
12:25 PM 49.6°F9.8°C 28.4°F-2.0°C 43% 6.4 mph WNW10.3 kmh WNW 12.3 mph19.8 kmh 30.12 in1020.0 mb 0.00 in0.0 mm 0.00 in0.0 mm 0.00 in0.0 mm
12:30 PM 49.5°F9.7°C 26.6°F-3.0°C 42% 6.4 mph WNW10.3 kmh WNW 12.3 mph19.8 kmh 30.12 in1020.0 mb 0.00 in0.0 mm 0.00 in0.0 mm 0.00 in0.0 mm
12:35 PM 49.3°F9.6°C 28.4°F-2.0°C 43% 4.8 mph W7.7 kmh W 8.1 mph13.0 kmh 30.12 in1020.0 mb 0.00 in0.0 mm 0.00 in0.0 mm 0.00 in0.0 mm
12:40 PM 49.1°F9.5°C 26.6°F-3.0°C 41% 6.2 mph NW10.0 kmh NW 14.5 mph23.3 kmh 30.15 in1021.0 mb 0.00 in0.0 mm 0.00 in0.0 mm 0.00 in0.0 mm
12:45 PM 48.7°F9.3°C 26.6°F-3.0°C 41% 6.7 mph NW10.8 kmh NW 14.5 mph23.3 kmh 30.15 in1021.0 mb 0.00 in0.0 mm 0.00 in0.0 mm 0.00 in0.0 mm
12:50 PM 48.7°F9.3°C 26.6°F-3.0°C 42% 5.5 mph NW8.9 kmh NW 8.7 mph14.0 kmh 30.15 in1021.0 mb 0.00 in0.0 mm 0.00 in0.0 mm 0.00 in0.0 mm
12:55 PM 48.7°F9.3°C 26.6°F-3.0°C 41% 5.2 mph WNW8.4 kmh WNW 8.7 mph14.0 kmh 30.15 in1021.0 mb 0.00 in0.0 mm 0.00 in0.0 mm 0.00 in0.0 mm
01:00 PM 48.7°F9.3°C 26.6°F-3.0°C 41% 4.9 mph W7.9 kmh W 7.6 mph12.2 kmh 30.15 in1021.0 mb 0.00 in0.0 mm 0.00 in0.0 mm 0.00 in0.0 mm
01:05 PM 48.7°F9.3°C 26.6°F-3.0°C 42% 4.5 mph WNW7.2 kmh WNW 6.7 mph10.8 kmh 30.15 in1021.0 mb 0.00 in0.0 mm 0.00 in0.0 mm 0.00 in0.0 mm
01:10 PM 48.7°F9.3°C 26.6°F-3.0°C 43% 4.5 mph WNW7.2 kmh WNW 6.3 mph10.1 kmh 30.15 in1021.0 mb 0.00 in0.0 mm 0.00 in0.0 mm 0.00 in0.0 mm
01:15 PM 48.7°F9.3°C 26.6°F-3.0°C 42% 4.6 mph W7.4 kmh W 7.8 mph12.6 kmh 30.15 in1021.0 mb 0.00 in0.0 mm 0.00 in0.0 mm 0.00 in0.0 mm
01:20 PM 48.7°F9.3°C 26.6°F-3.0°C 41% 5.1 mph W8.2 kmh W 9.4 mph15.1 kmh 30.15 in1021.0 mb 0.00 in0.0 mm 0.00 in0.0 mm 0.00 in0.0 mm
01:25 PM 48.7°F9.3°C 26.6°F-3.0°C 41% 5.3 mph W8.5 kmh W 9.4 mph15.1 kmh 30.15 in1021.0 mb 0.00 in0.0 mm 0.00 in0.0 mm 0.00 in0.0 mm
01:30 PM 48.7°F9.3°C 26.6°F-3.0°C 43% 4.7 mph WNW7.6 kmh WNW 7.4 mph11.9 kmh 30.15 in1021.0 mb 0.00 in0.0 mm 0.00 in0.0 mm 0.00 in0.0 mm
01:35 PM 48.9°F9.4°C 26.6°F-3.0°C 42% 4.2 mph NW6.8 kmh NW 6.5 mph10.5 kmh 30.15 in1021.0 mb 0.00 in0.0 mm 0.00 in0.0 mm 0.00 in0.0 mm
01:40 PM 49.1°F9.5°C 26.6°F-3.0°C 40% 5.7 mph NW9.2 kmh NW 10.3 mph16.6 kmh 30.15 in1021.0 mb 0.00 in0.0 mm 0.00 in0.0 mm 0.00 in0.0 mm
01:45 PM 49.1°F9.5°C 24.8°F-4.0°C 38% 6.3 mph WNW10.1 kmh WNW 10.3 mph16.6 kmh 30.15 in1021.0 mb 0.00 in0.0 mm 0.00 in0.0 mm 0.00 in0.0 mm
01:50 PM 49.1°F9.5°C 26.6°F-3.0°C 39% 6.1 mph W9.8 kmh W 7.8 mph12.6 kmh 30.15 in1021.0 mb 0.00 in0.0 mm 0.00 in0.0 mm 0.00 in0.0 mm
01:55 PM 48.9°F9.4°C 24.8°F-4.0°C 38% 7.5 mph WNW12.1 kmh WNW 12.1 mph19.5 kmh 30.15 in1021.0 mb 0.00 in0.0 mm 0.00 in0.0 mm 0.00 in0.0 mm
02:00 PM 48.7°F9.3°C 24.8°F-4.0°C 39% 6.6 mph NW10.6 kmh NW 12.1 mph19.5 kmh 30.15 in1021.0 mb 0.00 in0.0 mm 0.00 in0.0 mm 0.00 in0.0 mm
02:05 PM 48.6°F9.2°C 24.8°F-4.0°C 39% 5.4 mph WNW8.7 kmh WNW 10.1 mph16.3 kmh 30.15 in1021.0 mb 0.00 in0.0 mm 0.00 in0.0 mm 0.00 in0.0 mm
02:10 PM 48.4°F9.1°C 24.8°F-4.0°C 39% 4.8 mph W7.7 kmh W 8.5 mph13.7 kmh 30.15 in1021.0 mb 0.00 in0.0 mm 0.00 in0.0 mm 0.00 in0.0 mm
02:15 PM 48.0°F8.9°C 26.6°F-3.0°C 41% 4.5 mph WNW7.2 kmh WNW 8.5 mph13.7 kmh 30.15 in1021.0 mb 0.00 in0.0 mm 0.00 in0.0 mm 0.00 in0.0 mm
02:20 PM 48.0°F8.9°C 24.8°F-4.0°C 39% 5.1 mph WNW8.2 kmh WNW 8.5 mph13.7 kmh 30.15 in1021.0 mb 0.00 in0.0 mm 0.00 in0.0 mm 0.00 in0.0 mm
02:25 PM 48.0°F8.9°C 24.8°F-4.0°C 39% 5.7 mph W9.2 kmh W 8.5 mph13.7 kmh 30.15 in1021.0 mb 0.00 in0.0 mm 0.00 in0.0 mm 0.00 in0.0 mm
02:30 PM 47.8°F8.8°C 24.8°F-4.0°C 40% 5.1 mph WSW8.2 kmh WSW 8.5 mph13.7 kmh 30.15 in1021.0 mb 0.00 in0.0 mm 0.00 in0.0 mm 0.00 in0.0 mm
02:35 PM 47.8°F8.8°C 23.0°F-5.0°C 38% 5.5 mph WSW8.9 kmh WSW 9.2 mph14.8 kmh 30.15 in1021.0 mb 0.00 in0.0 mm 0.00 in0.0 mm 0.00 in0.0 mm
02:40 PM 47.7°F8.7°C 24.8°F-4.0°C 39% 5.4 mph W8.7 kmh W 9.2 mph14.8 kmh 30.15 in1021.0 mb 0.00 in0.0 mm 0.00 in0.0 mm 0.00 in0.0 mm
02:45 PM 47.7°F8.7°C 24.8°F-4.0°C 39% 4.1 mph WNW6.6 kmh WNW 8.5 mph13.7 kmh 30.15 in1021.0 mb 0.00 in0.0 mm 0.00 in0.0 mm 0.00 in0.0 mm
02:50 PM 47.5°F8.6°C 24.8°F-4.0°C 39% 5.0 mph W8.0 kmh W 8.5 mph13.7 kmh 30.15 in1021.0 mb 0.00 in0.0 mm 0.00 in0.0 mm 0.00 in0.0 mm
02:55 PM 47.5°F8.6°C 24.8°F-4.0°C 39% 5.1 mph W8.2 kmh W 7.6 mph12.2 kmh 30.18 in1022.0 mb 0.00 in0.0 mm 0.00 in0.0 mm 0.00 in0.0 mm
03:00 PM 47.3°F8.5°C 24.8°F-4.0°C 39% 4.3 mph W6.9 kmh W 6.3 mph10.1 kmh 30.18 in1022.0 mb 0.00 in0.0 mm 0.00 in0.0 mm 0.00 in0.0 mm
03:05 PM 47.3°F8.5°C 24.8°F-4.0°C 40% 4.1 mph WNW6.6 kmh WNW 9.4 mph15.1 kmh 30.18 in1022.0 mb 0.00 in0.0 mm 0.00 in0.0 mm 0.00 in0.0 mm
03:10 PM 47.1°F8.4°C 24.8°F-4.0°C 40% 3.5 mph W5.6 kmh W 9.4 mph15.1 kmh 30.18 in1022.0 mb 0.00 in0.0 mm 0.00 in0.0 mm 0.00 in0.0 mm
03:15 PM 46.9°F8.3°C 24.8°F-4.0°C 40% 2.7 mph WNW4.3 kmh WNW 4.9 mph7.9 kmh 30.18 in1022.0 mb 0.00 in0.0 mm 0.00 in0.0 mm 0.00 in0.0 mm
03:20 PM 46.8°F8.2°C 24.8°F-4.0°C 41% 3.0 mph WNW4.8 kmh WNW 6.5 mph10.5 kmh 30.18 in1022.0 mb 0.00 in0.0 mm 0.00 in0.0 mm 0.00 in0.0 mm
03:25 PM 46.8°F8.2°C 23.0°F-5.0°C 39% 4.1 mph W6.6 kmh W 7.6 mph12.2 kmh 30.21 in1023.0 mb 0.00 in0.0 mm 0.00 in0.0 mm 0.00 in0.0 mm
03:30 PM 46.6°F8.1°C 23.0°F-5.0°C 40% 3.8 mph W6.1 kmh W 7.6 mph12.2 kmh 30.21 in1023.0 mb 0.00 in0.0 mm 0.00 in0.0 mm 0.00 in0.0 mm
03:35 PM 46.6°F8.1°C 23.0°F-5.0°C 40% 3.5 mph W5.6 kmh W 8.7 mph14.0 kmh 30.21 in1023.0 mb 0.00 in0.0 mm 0.00 in0.0 mm 0.00 in0.0 mm
03:40 PM 46.4°F8.0°C 23.0°F-5.0°C 40% 3.9 mph W6.3 kmh W 8.7 mph14.0 kmh 30.21 in1023.0 mb 0.06 in1.5 mm 0.72 in18.3 mm 0.06 in1.5 mm
03:45 PM 46.2°F7.9°C 23.0°F-5.0°C 41% 3.4 mph WNW5.5 kmh WNW 5.8 mph9.3 kmh 30.21 in1023.0 mb 0.06 in1.5 mm 0.00 in0.0 mm 0.06 in1.5 mm
03:50 PM 46.2°F7.9°C 23.0°F-5.0°C 41% 3.4 mph W5.5 kmh W 4.7 mph7.6 kmh 30.21 in1023.0 mb 0.06 in1.5 mm 0.00 in0.0 mm 0.06 in1.5 mm
03:55 PM 46.0°F7.8°C 23.0°F-5.0°C 41% 3.3 mph WSW5.3 kmh WSW 4.7 mph7.6 kmh 30.21 in1023.0 mb 0.06 in1.5 mm 0.00 in0.0 mm 0.06 in1.5 mm
04:00 PM 45.9°F7.7°C 23.0°F-5.0°C 42% 2.4 mph WSW3.9 kmh WSW 4.0 mph6.4 kmh 30.21 in1023.0 mb 0.06 in1.5 mm 0.00 in0.0 mm 0.06 in1.5 mm
04:05 PM 45.7°F7.6°C 24.8°F-4.0°C 43% 1.8 mph WSW2.9 kmh WSW 4.0 mph6.4 kmh 30.21 in1023.0 mb 0.06 in1.5 mm 0.00 in0.0 mm 0.06 in1.5 mm
04:10 PM 45.5°F7.5°C 23.0°F-5.0°C 42% 2.3 mph WSW3.7 kmh WSW 4.0 mph6.4 kmh 30.21 in1023.0 mb 0.06 in1.5 mm 0.00 in0.0 mm 0.06 in1.5 mm
04:15 PM 45.3°F7.4°C 23.0°F-5.0°C 42% 2.8 mph WSW4.5 kmh WSW 4.0 mph6.4 kmh 30.21 in1023.0 mb 0.06 in1.5 mm 0.00 in0.0 mm 0.06 in1.5 mm
04:20 PM 45.3°F7.4°C 24.8°F-4.0°C 44% 2.2 mph WSW3.5 kmh WSW 4.0 mph6.4 kmh 30.21 in1023.0 mb 0.06 in1.5 mm 0.00 in0.0 mm 0.06 in1.5 mm
04:25 PM 45.0°F7.2°C 26.6°F-3.0°C 46% 0.9 mph WSW1.4 kmh WSW 4.0 mph6.4 kmh 30.24 in1024.0 mb 0.06 in1.5 mm 0.00 in0.0 mm 0.06 in1.5 mm
04:30 PM 45.0°F7.2°C 26.6°F-3.0°C 47% 0.4 mph SE0.6 kmh SE 2.7 mph4.3 kmh 30.24 in1024.0 mb 0.06 in1.5 mm 0.00 in0.0 mm 0.06 in1.5 mm
04:35 PM 44.8°F7.1°C 26.6°F-3.0°C 47% 0.6 mph SE1.0 kmh SE 2.7 mph4.3 kmh 30.24 in1024.0 mb 0.06 in1.5 mm 0.00 in0.0 mm 0.06 in1.5 mm
04:40 PM 44.6°F7.0°C 26.6°F-3.0°C 48% 0.6 mph ESE1.0 kmh ESE 1.6 mph2.6 kmh 30.24 in1024.0 mb 0.00 in0.0 mm 0.00 in0.0 mm 0.06 in1.5 mm
04:45 PM 44.1°F6.7°C 26.6°F-3.0°C 49% 1.4 mph ESE2.3 kmh ESE 3.6 mph5.8 kmh 30.24 in1024.0 mb 0.00 in0.0 mm 0.00 in0.0 mm 0.06 in1.5 mm
04:50 PM 44.2°F6.8°C 26.6°F-3.0°C 48% 1.5 mph SE2.4 kmh SE 3.6 mph5.8 kmh 30.24 in1024.0 mb 0.00 in0.0 mm 0.00 in0.0 mm 0.06 in1.5 mm
04:55 PM 44.2°F6.8°C 26.6°F-3.0°C 48% 1.2 mph WSW1.9 kmh WSW 2.0 mph3.2 kmh 30.24 in1024.0 mb 0.00 in0.0 mm 0.00 in0.0 mm 0.06 in1.5 mm
05:00 PM 43.7°F6.5°C 26.6°F-3.0°C 48% 2.1 mph WNW3.4 kmh WNW 3.6 mph5.8 kmh 30.24 in1024.0 mb 0.00 in0.0 mm 0.00 in0.0 mm 0.06 in1.5 mm
05:05 PM 43.7°F6.5°C 26.6°F-3.0°C 48% 3.1 mph NW5.0 kmh NW 4.7 mph7.6 kmh 30.24 in1024.0 mb 0.00 in0.0 mm 0.00 in0.0 mm 0.06 in1.5 mm
05:10 PM 43.7°F6.5°C 26.6°F-3.0°C 48% 3.7 mph NW6.0 kmh NW 4.9 mph7.9 kmh 30.24 in1024.0 mb 0.00 in0.0 mm 0.00 in0.0 mm 0.06 in1.5 mm
05:15 PM 43.7°F6.5°C 24.8°F-4.0°C 47% 3.1 mph NW5.0 kmh NW 6.0 mph9.7 kmh 30.24 in1024.0 mb 0.00 in0.0 mm 0.00 in0.0 mm 0.06 in1.5 mm
05:20 PM 43.7°F6.5°C 24.8°F-4.0°C 46% 2.3 mph WNW3.7 kmh WNW 6.0 mph9.7 kmh 30.24 in1024.0 mb 0.00 in0.0 mm 0.00 in0.0 mm 0.06 in1.5 mm
05:25 PM 43.5°F6.4°C 24.8°F-4.0°C 46% 2.2 mph W3.5 kmh W 2.9 mph4.7 kmh 30.24 in1024.0 mb 0.00 in0.0 mm 0.00 in0.0 mm 0.06 in1.5 mm
05:30 PM 43.5°F6.4°C 24.8°F-4.0°C 46% 2.0 mph WSW3.2 kmh WSW 2.9 mph4.7 kmh 30.24 in1024.0 mb 0.00 in0.0 mm 0.00 in0.0 mm 0.06 in1.5 mm
05:35 PM 43.3°F6.3°C 24.8°F-4.0°C 48% 1.2 mph W1.9 kmh W 2.9 mph4.7 kmh 30.24 in1024.0 mb 0.00 in0.0 mm 0.00 in0.0 mm 0.06 in1.5 mm
05:40 PM 43.2°F6.2°C 24.8°F-4.0°C 48% 0.4 mph W0.6 kmh W 1.1 mph1.8 kmh 30.27 in1025.1 mb 0.00 in0.0 mm 0.00 in0.0 mm 0.06 in1.5 mm
05:45 PM 42.8°F6.0°C 24.8°F-4.0°C 48% 0.4 mph NW0.6 kmh NW 1.1 mph1.8 kmh 30.27 in1025.1 mb 0.00 in0.0 mm 0.00 in0.0 mm 0.06 in1.5 mm
05:50 PM 42.4°F5.8°C 24.8°F-4.0°C 49% 0.3 mph NW0.5 kmh NW 1.1 mph1.8 kmh 30.27 in1025.1 mb 0.00 in0.0 mm 0.00 in0.0 mm 0.06 in1.5 mm
05:55 PM 42.3°F5.7°C 24.8°F-4.0°C 50% 0.3 mph NNW0.5 kmh NNW 1.1 mph1.8 kmh 30.27 in1025.1 mb 0.00 in0.0 mm 0.00 in0.0 mm 0.06 in1.5 mm
06:00 PM 41.9°F5.5°C 24.8°F-4.0°C 50% 0.2 mph NNW0.3 kmh NNW 1.1 mph1.8 kmh 30.27 in1025.1 mb 0.00 in0.0 mm 0.00 in0.0 mm 0.06 in1.5 mm
06:05 PM 41.9°F5.5°C 24.8°F-4.0°C 50% 0.5 mph W0.8 kmh W 1.3 mph2.1 kmh 30.27 in1025.1 mb 0.00 in0.0 mm 0.00 in0.0 mm 0.06 in1.5 mm
06:10 PM 42.1°F5.6°C 24.8°F-4.0°C 50% 0.8 mph W1.3 kmh W 2.7 mph4.3 kmh 30.27 in1025.1 mb 0.00 in0.0 mm 0.00 in0.0 mm 0.06 in1.5 mm
06:15 PM 42.1°F5.6°C 24.8°F-4.0°C 49% 0.9 mph WNW1.4 kmh WNW 2.7 mph4.3 kmh 30.27 in1025.1 mb 0.00 in0.0 mm 0.00 in0.0 mm 0.06 in1.5 mm
06:20 PM 42.1°F5.6°C 24.8°F-4.0°C 49% 1.6 mph WNW2.6 kmh WNW 2.7 mph4.3 kmh 30.27 in1025.1 mb 0.00 in0.0 mm 0.00 in0.0 mm 0.06 in1.5 mm
06:25 PM 42.1°F5.6°C 24.8°F-4.0°C 49% 1.8 mph W2.9 kmh W 3.6 mph5.8 kmh 30.27 in1025.1 mb 0.00 in0.0 mm 0.00 in0.0 mm 0.06 in1.5 mm
06:30 PM 42.1°F5.6°C 24.8°F-4.0°C 48% 2.3 mph WNW3.7 kmh WNW 4.5 mph7.2 kmh 30.27 in1025.1 mb 0.00 in0.0 mm 0.00 in0.0 mm 0.06 in1.5 mm
06:35 PM 42.1°F5.6°C 24.8°F-4.0°C 48% 2.7 mph WNW4.3 kmh WNW 4.5 mph7.2 kmh 30.27 in1025.1 mb 0.00 in0.0 mm 0.00 in0.0 mm 0.06 in1.5 mm
06:40 PM 42.3°F5.7°C 23.0°F-5.0°C 46% 2.8 mph WNW4.5 kmh WNW 4.3 mph6.9 kmh 30.27 in1025.1 mb 0.00 in0.0 mm 0.00 in0.0 mm 0.06 in1.5 mm
06:45 PM 42.3°F5.7°C 23.0°F-5.0°C 45% 3.6 mph W5.8 kmh W 6.3 mph10.1 kmh 30.27 in1025.1 mb 0.00 in0.0 mm 0.00 in0.0 mm 0.06 in1.5 mm
06:50 PM 42.3°F5.7°C 23.0°F-5.0°C 45% 3.2 mph W5.1 kmh W 6.3 mph10.1 kmh 30.27 in1025.1 mb 0.00 in0.0 mm 0.00 in0.0 mm 0.06 in1.5 mm
06:55 PM 42.3°F5.7°C 23.0°F-5.0°C 46% 2.2 mph W3.5 kmh W 3.8 mph6.1 kmh 30.27 in1025.1 mb 0.00 in0.0 mm 0.00 in0.0 mm 0.06 in1.5 mm
07:00 PM 42.1°F5.6°C 23.0°F-5.0°C 47% 1.9 mph W3.1 kmh W 3.1 mph5.0 kmh 30.27 in1025.1 mb 0.00 in0.0 mm 0.00 in0.0 mm 0.06 in1.5 mm
07:05 PM 41.9°F5.5°C 23.0°F-5.0°C 47% 2.2 mph W3.5 kmh W 3.8 mph6.1 kmh 30.27 in1025.1 mb 0.00 in0.0 mm 0.00 in0.0 mm 0.06 in1.5 mm
07:10 PM 42.1°F5.6°C 23.0°F-5.0°C 47% 2.1 mph WNW3.4 kmh WNW 4.7 mph7.6 kmh 30.27 in1025.1 mb 0.00 in0.0 mm 0.00 in0.0 mm 0.06 in1.5 mm
07:15 PM 41.9°F5.5°C 24.8°F-4.0°C 48% 1.1 mph NW1.8 kmh NW 4.7 mph7.6 kmh 30.27 in1025.1 mb 0.00 in0.0 mm 0.00 in0.0 mm 0.06 in1.5 mm
07:20 PM 41.7°F5.4°C 24.8°F-4.0°C 49% 0.2 mph N0.3 kmh N 1.1 mph1.8 kmh 30.27 in1025.1 mb 0.00 in0.0 mm 0.00 in0.0 mm 0.06 in1.5 mm
07:25 PM 41.5°F5.3°C 24.8°F-4.0°C 49% 0.1 mph NNE0.2 kmh NNE 0.9 mph1.4 kmh 30.30 in1026.1 mb 0.00 in0.0 mm 0.00 in0.0 mm 0.06 in1.5 mm
07:30 PM 41.5°F5.3°C 24.8°F-4.0°C 50% 0.1 mph SSE0.2 kmh SSE 0.9 mph1.4 kmh 30.30 in1026.1 mb 0.00 in0.0 mm 0.00 in0.0 mm 0.06 in1.5 mm
07:35 PM 41.4°F5.2°C 24.8°F-4.0°C 50% 0.5 mph E0.8 kmh E 1.3 mph2.1 kmh 30.30 in1026.1 mb 0.00 in0.0 mm 0.00 in0.0 mm 0.06 in1.5 mm
07:40 PM 41.2°F5.1°C 24.8°F-4.0°C 50% 0.4 mph E0.6 kmh E 1.3 mph2.1 kmh 30.30 in1026.1 mb 0.00 in0.0 mm 0.00 in0.0 mm 0.06 in1.5 mm
07:45 PM 41.0°F5.0°C 24.8°F-4.0°C 50% Calm Calm -- 30.30 in1026.1 mb 0.00 in0.0 mm 0.00 in0.0 mm 0.06 in1.5 mm
07:50 PM 40.5°F4.7°C 23.0°F-5.0°C 51% 0.3 mph SSW0.5 kmh SSW 1.3 mph2.1 kmh 30.30 in1026.1 mb 0.00 in0.0 mm 0.00 in0.0 mm 0.06 in1.5 mm
07:55 PM 40.6°F4.8°C 23.0°F-5.0°C 50% 0.8 mph SW1.3 kmh SW 2.5 mph4.0 kmh 30.30 in1026.1 mb 0.00 in0.0 mm 0.00 in0.0 mm 0.06 in1.5 mm
08:00 PM 40.6°F4.8°C 23.0°F-5.0°C 50% 1.2 mph WSW1.9 kmh WSW 2.5 mph4.0 kmh 30.30 in1026.1 mb 0.00 in0.0 mm 0.00 in0.0 mm 0.06 in1.5 mm
08:05 PM 40.8°F4.9°C 24.8°F-4.0°C 51% 1.4 mph WSW2.3 kmh WSW 2.5 mph4.0 kmh 30.30 in1026.1 mb 0.00 in0.0 mm 0.00 in0.0 mm 0.06 in1.5 mm
08:10 PM 40.8°F4.9°C 23.0°F-5.0°C 50% 1.5 mph WSW2.4 kmh WSW 2.5 mph4.0 kmh 30.30 in1026.1 mb 0.00 in0.0 mm 0.00 in0.0 mm 0.06 in1.5 mm
08:15 PM 40.6°F4.8°C 23.0°F-5.0°C 50% 1.0 mph WSW1.6 kmh WSW 2.2 mph3.5 kmh 30.30 in1026.1 mb 0.00 in0.0 mm 0.00 in0.0 mm 0.06 in1.5 mm
08:20 PM 40.5°F4.7°C 23.0°F-5.0°C 51% 0.5 mph WSW0.8 kmh WSW 1.6 mph2.6 kmh 30.30 in1026.1 mb 0.00 in0.0 mm 0.00 in0.0 mm 0.06 in1.5 mm
08:25 PM 40.3°F4.6°C 23.0°F-5.0°C 51% 0.6 mph W1.0 kmh W 2.2 mph3.5 kmh 30.30 in1026.1 mb 0.00 in0.0 mm 0.00 in0.0 mm 0.06 in1.5 mm
08:30 PM 40.3°F4.6°C 24.8°F-4.0°C 52% 0.7 mph WNW1.1 kmh WNW 2.5 mph4.0 kmh 30.30 in1026.1 mb 0.00 in0.0 mm 0.00 in0.0 mm 0.06 in1.5 mm
08:35 PM 40.3°F4.6°C 24.8°F-4.0°C 52% 1.0 mph W1.6 kmh W 2.5 mph4.0 kmh 30.30 in1026.1 mb 0.00 in0.0 mm 0.00 in0.0 mm 0.06 in1.5 mm
08:40 PM 40.3°F4.6°C 23.0°F-5.0°C 51% 1.4 mph W2.3 kmh W 2.5 mph4.0 kmh 30.30 in1026.1 mb 0.00 in0.0 mm 0.00 in0.0 mm 0.06 in1.5 mm
08:45 PM 39.9°F4.4°C 23.0°F-5.0°C 51% 0.9 mph W1.4 kmh W 1.6 mph2.6 kmh 30.30 in1026.1 mb 0.00 in0.0 mm 0.00 in0.0 mm 0.06 in1.5 mm
08:50 PM 39.7°F4.3°C 23.0°F-5.0°C 51% 0.5 mph WNW0.8 kmh WNW 1.3 mph2.1 kmh 30.30 in1026.1 mb 0.00 in0.0 mm 0.00 in0.0 mm 0.06 in1.5 mm
08:55 PM 39.6°F4.2°C 23.0°F-5.0°C 51% 0.6 mph WNW1.0 kmh WNW 2.5 mph4.0 kmh 30.33 in1027.1 mb 0.00 in0.0 mm 0.00 in0.0 mm 0.06 in1.5 mm
09:00 PM 39.7°F4.3°C 23.0°F-5.0°C 52% 0.9 mph WNW1.4 kmh WNW 2.5 mph4.0 kmh 30.33 in1027.1 mb 0.00 in0.0 mm 0.00 in0.0 mm 0.06 in1.5 mm
09:05 PM 39.7°F4.3°C 23.0°F-5.0°C 52% 0.9 mph NW1.4 kmh NW 1.6 mph2.6 kmh 30.33 in1027.1 mb 0.00 in0.0 mm 0.00 in0.0 mm 0.06 in1.5 mm
09:10 PM 39.7°F4.3°C 23.0°F-5.0°C 52% 1.2 mph NNE1.9 kmh NNE 2.9 mph4.7 kmh 30.33 in1027.1 mb 0.00 in0.0 mm 0.00 in0.0 mm 0.06 in1.5 mm
09:15 PM 39.6°F4.2°C 23.0°F-5.0°C 52% 1.3 mph NNE2.1 kmh NNE 2.9 mph4.7 kmh 30.33 in1027.1 mb 0.00 in0.0 mm 0.00 in0.0 mm 0.06 in1.5 mm
09:20 PM 39.4°F4.1°C 23.0°F-5.0°C 52% 0.9 mph N1.4 kmh N 2.7 mph4.3 kmh 30.33 in1027.1 mb 0.00 in0.0 mm 0.00 in0.0 mm 0.06 in1.5 mm
09:25 PM 39.6°F4.2°C 23.0°F-5.0°C 52% 0.6 mph N1.0 kmh N 2.7 mph4.3 kmh 30.33 in1027.1 mb 0.00 in0.0 mm 0.00 in0.0 mm 0.06 in1.5 mm
09:30 PM 39.4°F4.1°C 23.0°F-5.0°C 52% 0.5 mph NNW0.8 kmh NNW 1.3 mph2.1 kmh 30.33 in1027.1 mb 0.00 in0.0 mm 0.00 in0.0 mm 0.06 in1.5 mm
09:35 PM 39.2°F4.0°C 23.0°F-5.0°C 52% 0.8 mph N1.3 kmh N 1.6 mph2.6 kmh 30.33 in1027.1 mb 0.00 in0.0 mm 0.00 in0.0 mm 0.06 in1.5 mm
09:40 PM 39.2°F4.0°C 23.0°F-5.0°C 52% 0.7 mph NNW1.1 kmh NNW 1.6 mph2.6 kmh 30.33 in1027.1 mb 0.00 in0.0 mm 0.00 in0.0 mm 0.06 in1.5 mm
09:45 PM 38.8°F3.8°C 23.0°F-5.0°C 53% 0.2 mph NW0.3 kmh NW 1.1 mph1.8 kmh 30.33 in1027.1 mb 0.00 in0.0 mm 0.00 in0.0 mm 0.06 in1.5 mm
09:50 PM 38.8°F3.8°C 23.0°F-5.0°C 53% Calm Calm -- 30.33 in1027.1 mb 0.00 in0.0 mm 0.00 in0.0 mm 0.06 in1.5 mm
09:55 PM 38.8°F3.8°C 23.0°F-5.0°C 53% Calm Calm -- 30.33 in1027.1 mb 0.00 in0.0 mm 0.00 in0.0 mm 0.06 in1.5 mm
10:00 PM 38.7°F3.7°C 23.0°F-5.0°C 54% 0.1 mph WNW0.2 kmh WNW 0.9 mph1.4 kmh 30.33 in1027.1 mb 0.00 in0.0 mm 0.00 in0.0 mm 0.06 in1.5 mm
10:05 PM 38.3°F3.5°C 23.0°F-5.0°C 54% 0.2 mph NW0.3 kmh NW 0.9 mph1.4 kmh 30.33 in1027.1 mb 0.00 in0.0 mm 0.00 in0.0 mm 0.06 in1.5 mm
10:10 PM 38.3°F3.5°C 23.0°F-5.0°C 54% 0.4 mph NW0.6 kmh NW 1.1 mph1.8 kmh 30.33 in1027.1 mb 0.00 in0.0 mm 0.00 in0.0 mm 0.06 in1.5 mm
10:15 PM 38.1°F3.4°C 23.0°F-5.0°C 54% 0.4 mph WNW0.6 kmh WNW 1.1 mph1.8 kmh 30.33 in1027.1 mb 0.00 in0.0 mm 0.00 in0.0 mm 0.06 in1.5 mm
10:20 PM 38.1°F3.4°C 23.0°F-5.0°C 54% 0.2 mph WNW0.3 kmh WNW 1.1 mph1.8 kmh 30.33 in1027.1 mb 0.00 in0.0 mm 0.00 in0.0 mm 0.06 in1.5 mm
10:25 PM 37.9°F3.3°C 23.0°F-5.0°C 54% 0.4 mph NW0.6 kmh NW 1.6 mph2.6 kmh 30.33 in1027.1 mb 0.00 in0.0 mm 0.00 in0.0 mm 0.06 in1.5 mm
10:30 PM 38.1°F3.4°C 23.0°F-5.0°C 54% 0.6 mph NW1.0 kmh NW 1.6 mph2.6 kmh 30.33 in1027.1 mb 0.00 in0.0 mm 0.00 in0.0 mm 0.06 in1.5 mm
10:35 PM 37.9°F3.3°C 23.0°F-5.0°C 54% 0.3 mph NW0.5 kmh NW 1.3 mph2.1 kmh 30.33 in1027.1 mb 0.00 in0.0 mm 0.00 in0.0 mm 0.06 in1.5 mm
10:40 PM 37.9°F3.3°C 23.0°F-5.0°C 54% 0.2 mph NW0.3 kmh NW 1.3 mph2.1 kmh 30.33 in1027.1 mb 0.00 in0.0 mm 0.00 in0.0 mm 0.06 in1.5 mm
10:45 PM 37.9°F3.3°C 23.0°F-5.0°C 55% Calm Calm -- 30.33 in1027.1 mb 0.00 in0.0 mm 0.00 in0.0 mm 0.06 in1.5 mm
10:50 PM 38.1°F3.4°C 23.0°F-5.0°C 55% 0.1 mph SW0.2 kmh SW 0.9 mph1.4 kmh 30.33 in1027.1 mb 0.00 in0.0 mm 0.00 in0.0 mm 0.06 in1.5 mm
10:55 PM 38.1°F3.4°C 23.0°F-5.0°C 55% 0.1 mph W0.2 kmh W 0.9 mph1.4 kmh 30.33 in1027.1 mb 0.00 in0.0 mm 0.00 in0.0 mm 0.06 in1.5 mm
11:00 PM 37.9°F3.3°C 23.0°F-5.0°C 55% 0.1 mph WNW0.2 kmh WNW 0.9 mph1.4 kmh 30.33 in1027.1 mb 0.00 in0.0 mm 0.00 in0.0 mm 0.06 in1.5 mm
11:05 PM 37.8°F3.2°C 23.0°F-5.0°C 55% 0.1 mph W0.2 kmh W 0.9 mph1.4 kmh 30.33 in1027.1 mb 0.00 in0.0 mm 0.00 in0.0 mm 0.06 in1.5 mm
11:10 PM 37.8°F3.2°C 23.0°F-5.0°C 55% Calm Calm -- 30.36 in1028.1 mb 0.00 in0.0 mm 0.00 in0.0 mm 0.06 in1.5 mm
11:15 PM 37.6°F3.1°C 23.0°F-5.0°C 55% 0.1 mph NW0.2 kmh NW 0.9 mph1.4 kmh 30.36 in1028.1 mb 0.00 in0.0 mm 0.00 in0.0 mm 0.06 in1.5 mm
11:20 PM 37.6°F3.1°C 23.0°F-5.0°C 55% 0.5 mph WNW0.8 kmh WNW 3.1 mph5.0 kmh 30.36 in1028.1 mb 0.00 in0.0 mm 0.00 in0.0 mm 0.06 in1.5 mm
11:25 PM 37.9°F3.3°C 23.0°F-5.0°C 56% 0.8 mph WNW1.3 kmh WNW 3.1 mph5.0 kmh 30.36 in1028.1 mb 0.00 in0.0 mm 0.00 in0.0 mm 0.06 in1.5 mm
11:30 PM 37.8°F3.2°C 23.0°F-5.0°C 55% 0.5 mph WNW0.8 kmh WNW 1.1 mph1.8 kmh 30.36 in1028.1 mb 0.00 in0.0 mm 0.00 in0.0 mm 0.06 in1.5 mm
11:35 PM 37.6°F3.1°C 23.0°F-5.0°C 55% 0.2 mph WNW0.3 kmh WNW 0.9 mph1.4 kmh 30.36 in1028.1 mb 0.00 in0.0 mm 0.00 in0.0 mm 0.06 in1.5 mm
11:40 PM 37.4°F3.0°C 23.0°F-5.0°C 55% 0.3 mph NW0.5 kmh NW 1.1 mph1.8 kmh 30.36 in1028.1 mb 0.00 in0.0 mm 0.00 in0.0 mm 0.06 in1.5 mm
11:45 PM 37.4°F3.0°C 23.0°F-5.0°C 55% 0.1 mph NNW0.2 kmh NNW 1.1 mph1.8 kmh 30.36 in1028.1 mb 0.00 in0.0 mm 0.00 in0.0 mm 0.06 in1.5 mm
11:50 PM 37.4°F3.0°C 23.0°F-5.0°C 55% 0.1 mph WNW0.2 kmh WNW 0.9 mph1.4 kmh 30.36 in1028.1 mb 0.00 in0.0 mm 0.00 in0.0 mm 0.06 in1.5 mm
11:55 PM 37.4°F3.0°C 23.0°F-5.0°C 55% 0.1 mph WNW0.2 kmh WNW 0.9 mph1.4 kmh 30.36 in1028.1 mb 0.00 in0.0 mm 0.00 in0.0 mm 0.06 in1.5 mm